createdAt,value
2022-12-26T00:00:25.862Z,10.44
2022-12-26T00:02:52.345Z,10.40
2022-12-26T00:05:18.777Z,10.41
2022-12-26T00:07:45.723Z,10.43
2022-12-26T00:10:12.187Z,10.48
2022-12-26T00:12:38.578Z,10.47
2022-12-26T00:15:05.308Z,10.46
2022-12-26T00:17:31.747Z,10.46
2022-12-26T00:19:58.140Z,10.49
2022-12-26T00:22:24.555Z,10.52
2022-12-26T00:24:50.946Z,10.55
2022-12-26T00:27:17.394Z,10.54
2022-12-26T00:29:43.775Z,10.51
2022-12-26T00:32:10.165Z,10.49
2022-12-26T00:34:36.853Z,10.51
2022-12-26T00:37:03.286Z,10.43
2022-12-26T00:39:29.706Z,10.47
2022-12-26T00:41:56.114Z,10.45
2022-12-26T00:44:22.499Z,10.41
2022-12-26T00:46:48.915Z,10.42
2022-12-26T00:49:15.351Z,10.40
2022-12-26T00:51:41.733Z,10.36
2022-12-26T00:54:08.115Z,10.37
2022-12-26T00:56:34.606Z,10.35
2022-12-26T00:59:01.027Z,10.35
2022-12-26T01:01:30.820Z,10.34
2022-12-26T01:03:58.071Z,10.26
2022-12-26T01:06:24.602Z,10.22
2022-12-26T01:08:51.185Z,10.23
2022-12-26T01:11:40.057Z,10.26
2022-12-26T01:14:17.049Z,10.26
2022-12-26T01:16:45.187Z,10.24
2022-12-26T01:19:12.802Z,10.21
2022-12-26T01:21:39.673Z,10.22
2022-12-26T01:24:07.459Z,10.23
2022-12-26T01:26:34.345Z,10.28
2022-12-26T01:29:00.719Z,10.29
2022-12-26T01:31:27.103Z,10.25
2022-12-26T01:33:53.505Z,10.26
2022-12-26T01:36:19.964Z,10.25
2022-12-26T01:38:46.465Z,10.23
2022-12-26T01:41:16.549Z,10.22
2022-12-26T01:43:52.022Z,10.15
2022-12-26T01:46:31.712Z,10.12
2022-12-26T01:49:05.609Z,10.16
2022-12-26T01:51:36.411Z,10.13
2022-12-26T01:54:40.572Z,10.14
2022-12-26T01:56:53.868Z,10.08
2022-12-26T01:59:28.555Z,10.08
2022-12-26T02:01:55.648Z,10.04
2022-12-26T02:04:52.155Z,9.98
2022-12-26T02:07:18.705Z,9.92
2022-12-26T02:09:45.146Z,9.88
2022-12-26T02:12:34.362Z,9.78
2022-12-26T02:15:08.668Z,9.79
2022-12-26T02:17:36.032Z,9.83
2022-12-26T02:20:17.065Z,9.82
2022-12-26T02:23:20.822Z,9.83
2022-12-26T02:26:17.784Z,9.88
2022-12-26T02:28:59.120Z,9.87
2022-12-26T02:31:36.361Z,9.83
2022-12-26T02:34:19.487Z,9.85
2022-12-26T02:37:23.608Z,9.88
2022-12-26T02:40:16.085Z,9.87
2022-12-26T02:42:59.675Z,9.86
2022-12-26T02:45:53.893Z,9.86
2022-12-26T02:48:27.624Z,9.87
2022-12-26T02:51:31.827Z,9.86
2022-12-26T02:54:44.796Z,9.93
2022-12-26T02:57:36.541Z,9.87
2022-12-26T03:00:27.299Z,9.83
2022-12-26T03:03:19.569Z,9.85
2022-12-26T03:06:11.177Z,9.88
2022-12-26T03:09:06.537Z,9.79
2022-12-26T03:11:57.767Z,9.82
2022-12-26T03:14:32.301Z,9.81
2022-12-26T03:17:22.413Z,9.79
2022-12-26T03:19:59.180Z,9.83
2022-12-26T03:22:51.141Z,9.77
2022-12-26T03:26:01.240Z,9.82
2022-12-26T03:28:28.013Z,9.78
2022-12-26T03:30:58.158Z,9.77
2022-12-26T03:33:57.817Z,9.75
2022-12-26T03:36:54.761Z,9.73
2022-12-26T03:40:07.833Z,9.72
2022-12-26T03:43:14.040Z,9.69
2022-12-26T03:46:37.370Z,9.69
2022-12-26T03:49:39.736Z,9.65
2022-12-26T03:52:47.150Z,9.65
2022-12-26T03:55:38.207Z,9.70
2022-12-26T03:58:50.765Z,9.66
2022-12-26T04:01:42.795Z,9.66
2022-12-26T04:04:31.370Z,9.64
2022-12-26T04:07:24.506Z,9.68
2022-12-26T04:10:28.579Z,9.65
2022-12-26T04:13:16.525Z,9.58
2022-12-26T04:16:04.007Z,9.55
2022-12-26T04:18:59.207Z,9.57
2022-12-26T04:22:19.320Z,9.53
2022-12-26T04:25:15.723Z,9.56
2022-12-26T04:28:01.162Z,9.54
2022-12-26T04:30:46.427Z,9.57
2022-12-26T04:33:41.847Z,9.62
2022-12-26T04:36:37.193Z,9.64
2022-12-26T04:39:24.916Z,9.65
2022-12-26T04:42:11.258Z,9.70
2022-12-26T04:44:40.488Z,9.66
2022-12-26T04:47:07.483Z,9.64
2022-12-26T04:50:03.711Z,9.64
2022-12-26T04:52:50.223Z,9.65
2022-12-26T04:55:17.962Z,9.61
2022-12-26T04:57:44.364Z,9.57
2022-12-26T05:00:11.693Z,9.58
2022-12-26T05:02:56.875Z,9.56
2022-12-26T05:05:41.941Z,9.57
2022-12-26T05:08:41.561Z,9.59
2022-12-26T05:11:07.930Z,9.55
2022-12-26T05:13:34.400Z,9.62
2022-12-26T05:16:19.148Z,9.56
2022-12-26T05:19:04.665Z,9.56
2022-12-26T05:21:50.123Z,9.65
2022-12-26T05:24:35.603Z,9.65
2022-12-26T05:27:20.835Z,9.66
2022-12-26T05:29:47.580Z,9.69
2022-12-26T05:32:14.015Z,9.70
2022-12-26T05:34:40.390Z,9.73
2022-12-26T05:37:06.917Z,9.64
2022-12-26T05:39:33.291Z,9.62
2022-12-26T05:41:59.680Z,9.62
2022-12-26T05:44:26.140Z,9.59
2022-12-26T05:46:52.591Z,9.62
2022-12-26T05:49:19.366Z,9.60
2022-12-26T05:51:45.842Z,9.58
2022-12-26T05:54:12.215Z,9.58
2022-12-26T05:56:40.169Z,9.62
2022-12-26T05:59:09.431Z,9.70
2022-12-26T06:01:36.012Z,9.71
2022-12-26T06:04:02.828Z,9.67
2022-12-26T06:06:29.363Z,9.67
2022-12-26T06:08:56.924Z,9.67
2022-12-26T06:11:26.332Z,9.64
2022-12-26T06:13:53.423Z,9.64
2022-12-26T06:16:20.482Z,9.58
2022-12-26T06:18:48.100Z,9.56
2022-12-26T06:21:16.842Z,9.54
2022-12-26T06:23:43.650Z,9.53
2022-12-26T06:26:12.392Z,9.61
2022-12-26T06:28:40.590Z,9.54
2022-12-26T06:31:21.353Z,9.46
2022-12-26T06:33:55.452Z,9.55
2022-12-26T06:36:23.790Z,9.54
2022-12-26T06:38:50.502Z,9.53
2022-12-26T06:41:19.039Z,9.53
2022-12-26T06:43:46.311Z,9.50
2022-12-26T06:46:15.743Z,9.50
2022-12-26T06:48:43.235Z,9.53
2022-12-26T06:51:19.408Z,9.53
2022-12-26T06:53:46.353Z,9.62
2022-12-26T06:56:18.486Z,9.61
2022-12-26T06:58:44.923Z,9.56
2022-12-26T07:01:16.911Z,9.58
2022-12-26T07:03:51.902Z,9.53
2022-12-26T07:06:25.623Z,9.52
2022-12-26T07:08:58.305Z,9.55
2022-12-26T07:11:27.357Z,9.65
2022-12-26T07:13:54.556Z,9.65
2022-12-26T07:16:21.401Z,9.66
2022-12-26T07:18:47.924Z,9.64
2022-12-26T07:21:15.798Z,9.67
2022-12-26T07:23:42.512Z,9.70
2022-12-26T07:26:09.264Z,9.77
2022-12-26T07:28:35.728Z,9.83
2022-12-26T07:31:03.536Z,9.84
2022-12-26T07:33:30.450Z,9.82
2022-12-26T07:36:05.801Z,9.87
2022-12-26T07:38:33.360Z,9.90
2022-12-26T07:41:20.443Z,9.90
2022-12-26T07:43:46.815Z,9.97
2022-12-26T07:46:13.301Z,9.97
2022-12-26T07:48:39.717Z,9.99
2022-12-26T07:51:06.185Z,9.97
2022-12-26T07:53:32.785Z,9.95
2022-12-26T07:55:59.727Z,9.99
2022-12-26T07:58:26.340Z,10.08
2022-12-26T08:00:52.845Z,10.09
2022-12-26T08:03:19.425Z,10.09
2022-12-26T08:05:47.876Z,10.05
2022-12-26T08:08:15.627Z,10.05
2022-12-26T08:10:42.317Z,10.05
2022-12-26T08:13:09.531Z,10.05
2022-12-26T08:15:39.094Z,10.05
2022-12-26T08:18:05.872Z,10.13
2022-12-26T08:20:32.988Z,10.06
2022-12-26T08:22:59.500Z,9.98
2022-12-26T08:25:26.068Z,9.94
2022-12-26T08:27:52.464Z,9.93
2022-12-26T08:30:18.870Z,9.92
2022-12-26T08:32:46.453Z,9.98
2022-12-26T08:35:13.317Z,10.01
2022-12-26T08:37:39.742Z,10.05
2022-12-26T08:40:06.598Z,9.93
2022-12-26T08:42:34.636Z,10.02
2022-12-26T08:45:06.828Z,10.01
2022-12-26T08:47:33.305Z,10.05
2022-12-26T08:49:59.695Z,10.06
2022-12-26T08:52:26.097Z,10.13
2022-12-26T08:54:52.503Z,10.17
2022-12-26T08:57:18.915Z,10.18
2022-12-26T08:59:45.308Z,10.20
2022-12-26T09:02:11.915Z,10.25
2022-12-26T09:04:38.430Z,10.23
2022-12-26T09:07:08.103Z,10.27
2022-12-26T09:09:34.963Z,10.30
2022-12-26T09:12:01.529Z,10.26
2022-12-26T09:14:27.991Z,10.24
2022-12-26T09:16:54.546Z,10.17
2022-12-26T09:19:22.213Z,10.21
2022-12-26T09:22:10.089Z,10.23
2022-12-26T09:24:36.499Z,10.30
2022-12-26T09:27:02.944Z,10.27
2022-12-26T09:29:29.319Z,10.29
2022-12-26T09:31:55.841Z,10.26
2022-12-26T09:34:22.216Z,10.31
2022-12-26T09:36:48.669Z,10.34
2022-12-26T09:39:15.065Z,10.37
2022-12-26T09:41:59.299Z,10.42
2022-12-26T09:44:48.215Z,10.51
2022-12-26T09:47:30.081Z,10.58
2022-12-26T09:50:02.605Z,10.54
2022-12-26T09:52:38.414Z,10.56
2022-12-26T09:55:18.660Z,10.57
2022-12-26T09:57:51.481Z,10.58
2022-12-26T10:00:21.148Z,10.61
2022-12-26T10:02:52.496Z,10.59
2022-12-26T10:05:22.111Z,10.54
2022-12-26T10:07:53.485Z,10.54
2022-12-26T10:10:31.736Z,10.52
2022-12-26T10:13:32.136Z,10.53
2022-12-26T10:16:23.017Z,10.54
2022-12-26T10:19:08.585Z,10.53
2022-12-26T10:21:42.330Z,10.54
2022-12-26T10:24:16.702Z,10.60
2022-12-26T10:26:53.051Z,10.56
2022-12-26T10:29:36.889Z,10.59
2022-12-26T10:32:14.029Z,10.62
2022-12-26T10:34:46.133Z,10.61
2022-12-26T10:37:32.926Z,10.64
2022-12-26T10:40:09.447Z,10.68
2022-12-26T10:42:41.685Z,10.69
2022-12-26T10:45:43.254Z,10.72
2022-12-26T10:48:14.379Z,10.68
2022-12-26T10:50:46.454Z,10.62
2022-12-26T10:53:14.643Z,10.52
2022-12-26T10:55:41.044Z,10.50
2022-12-26T10:58:25.759Z,10.52
2022-12-26T11:00:53.367Z,10.48
2022-12-26T11:03:21.480Z,10.37
2022-12-26T11:06:08.982Z,10.29
2022-12-26T11:08:46.686Z,10.27
2022-12-26T11:11:22.434Z,10.26
2022-12-26T11:14:02.289Z,10.27
2022-12-26T11:16:37.688Z,10.31
2022-12-26T11:19:04.339Z,10.33
2022-12-26T11:21:32.107Z,10.42
2022-12-26T11:24:21.693Z,10.47
2022-12-26T11:26:48.202Z,10.49
2022-12-26T11:29:24.318Z,10.53
2022-12-26T11:31:55.607Z,10.49
2022-12-26T11:34:32.368Z,10.53
2022-12-26T11:37:01.475Z,10.51
2022-12-26T11:39:33.310Z,10.48
2022-12-26T11:42:00.008Z,10.48
2022-12-26T11:44:34.452Z,10.51
2022-12-26T11:47:14.437Z,10.50
2022-12-26T11:49:45.950Z,10.51
2022-12-26T11:52:30.923Z,10.43
2022-12-26T11:54:57.336Z,10.45
2022-12-26T11:57:35.268Z,10.39
2022-12-26T12:00:18.814Z,10.35
2022-12-26T12:02:45.965Z,10.37
2022-12-26T12:05:16.085Z,10.38
2022-12-26T12:08:09.844Z,10.52
2022-12-26T12:10:51.946Z,10.66
2022-12-26T12:13:31.421Z,10.67
2022-12-26T12:16:24.306Z,10.72
2022-12-26T12:19:04.949Z,10.72
2022-12-26T12:21:42.885Z,10.70
2022-12-26T12:24:34.429Z,10.64
2022-12-26T12:27:15.958Z,10.71
2022-12-26T12:30:04.294Z,10.74
2022-12-26T12:33:12.323Z,10.64
2022-12-26T12:35:59.992Z,9.68
2022-12-26T12:38:51.536Z,9.06
2022-12-26T12:42:00.064Z,8.67
2022-12-26T12:44:42.736Z,8.51
2022-12-26T12:47:24.168Z,8.35
2022-12-26T12:50:02.144Z,8.26
2022-12-26T12:52:53.292Z,8.23
2022-12-26T12:55:25.513Z,8.22
2022-12-26T12:58:06.807Z,8.21
2022-12-26T13:00:47.816Z,8.16
2022-12-26T13:03:20.257Z,8.16
2022-12-26T13:06:02.097Z,8.16
2022-12-26T13:08:51.767Z,8.14
2022-12-26T13:11:33.533Z,8.04
2022-12-26T13:14:12.861Z,7.99
2022-12-26T13:16:47.142Z,7.98
2022-12-26T13:19:25.078Z,7.99
2022-12-26T13:21:56.508Z,8.02
2022-12-26T13:24:34.899Z,7.95
2022-12-26T13:27:04.128Z,7.99
2022-12-26T13:29:42.617Z,7.98
2022-12-26T13:32:22.837Z,8.00
2022-12-26T13:34:51.596Z,7.99
2022-12-26T13:37:39.018Z,8.00
2022-12-26T13:40:25.688Z,7.95
2022-12-26T13:43:32.466Z,7.85
2022-12-26T13:45:59.061Z,7.72
2022-12-26T13:48:30.303Z,7.59
2022-12-26T13:51:02.061Z,7.51
2022-12-26T13:53:37.165Z,7.44
2022-12-26T13:56:30.491Z,7.36
2022-12-26T13:59:20.774Z,7.35
2022-12-26T14:01:56.273Z,7.29
2022-12-26T14:04:54.145Z,7.27
2022-12-26T14:08:05.123Z,7.24
2022-12-26T14:11:09.481Z,7.21
2022-12-26T14:14:06.598Z,7.23
2022-12-26T14:16:54.677Z,7.21
2022-12-26T14:19:58.594Z,7.14
2022-12-26T14:22:39.945Z,7.06
2022-12-26T14:25:32.580Z,6.95
2022-12-26T14:28:34.963Z,6.84
2022-12-26T14:31:08.857Z,6.76
2022-12-26T14:34:05.510Z,6.68
2022-12-26T14:36:48.426Z,6.62
2022-12-26T14:39:44.406Z,6.57
2022-12-26T14:42:40.549Z,6.57
2022-12-26T14:45:32.708Z,6.49
2022-12-26T14:47:59.395Z,6.47
2022-12-26T14:50:39.645Z,6.49
2022-12-26T14:53:24.418Z,6.41
2022-12-26T14:56:13.944Z,6.47
2022-12-26T14:58:44.747Z,6.46
2022-12-26T15:01:15.582Z,6.44
2022-12-26T15:03:50.925Z,6.47
2022-12-26T15:06:20.408Z,6.38
2022-12-26T15:09:17.136Z,6.45
2022-12-26T15:12:04.639Z,6.36
2022-12-26T15:14:46.076Z,6.41
2022-12-26T15:17:26.119Z,6.31
2022-12-26T15:20:20.316Z,6.37
2022-12-26T15:23:30.703Z,6.37
2022-12-26T15:26:15.322Z,6.34
2022-12-26T15:29:08.972Z,6.30
2022-12-26T15:31:57.118Z,6.26
2022-12-26T15:34:59.186Z,6.14
2022-12-26T15:38:06.493Z,6.12
2022-12-26T15:40:37.913Z,6.07
2022-12-26T15:43:22.871Z,6.01
2022-12-26T15:46:01.495Z,5.93
2022-12-26T15:48:42.767Z,5.81
2022-12-26T15:51:17.466Z,5.74
2022-12-26T15:54:04.931Z,5.63
2022-12-26T15:56:47.264Z,5.60
2022-12-26T15:59:50.606Z,5.57
2022-12-26T16:02:25.977Z,5.47
2022-12-26T16:04:58.452Z,5.47
2022-12-26T16:07:40.689Z,5.42
2022-12-26T16:10:26.618Z,5.31
2022-12-26T16:13:11.503Z,5.24
2022-12-26T16:15:50.514Z,5.16
2022-12-26T16:18:27.796Z,5.18
2022-12-26T16:21:16.071Z,5.08
2022-12-26T16:23:44.399Z,5.08
2022-12-26T16:26:27.174Z,5.05
2022-12-26T16:28:54.964Z,5.01
2022-12-26T16:31:26.701Z,5.00
2022-12-26T16:33:54.973Z,5.02
2022-12-26T16:36:24.265Z,5.01
2022-12-26T16:38:52.357Z,5.06
2022-12-26T16:41:22.016Z,5.03
2022-12-26T16:43:49.660Z,4.98
2022-12-26T16:46:18.869Z,5.02
2022-12-26T16:48:52.069Z,5.03
2022-12-26T16:51:40.545Z,5.04
2022-12-26T16:54:28.063Z,5.05
2022-12-26T16:57:13.069Z,4.94
2022-12-26T16:59:57.125Z,4.94
2022-12-26T17:02:27.764Z,4.89
2022-12-26T17:05:03.574Z,4.85
2022-12-26T17:07:31.262Z,4.88
2022-12-26T17:10:00.276Z,4.86
2022-12-26T17:12:37.160Z,4.82
2022-12-26T17:15:05.660Z,4.77
2022-12-26T17:17:44.634Z,4.77
2022-12-26T17:20:22.949Z,4.76
2022-12-26T17:22:50.286Z,4.66
2022-12-26T17:25:26.300Z,4.68
2022-12-26T17:28:07.794Z,4.66
2022-12-26T17:30:54.547Z,4.65
2022-12-26T17:33:27.749Z,4.61
2022-12-26T17:37:19.387Z,4.59
2022-12-26T17:38:53.858Z,4.55
2022-12-26T17:41:20.249Z,4.60
2022-12-26T17:43:47.461Z,4.61
2022-12-26T17:46:16.049Z,4.59
2022-12-26T17:48:43.261Z,4.57
2022-12-26T17:51:15.185Z,4.58
2022-12-26T17:53:43.722Z,4.56
2022-12-26T17:56:16.657Z,4.52
2022-12-26T17:58:43.727Z,4.52
2022-12-26T18:01:13.633Z,4.51
2022-12-26T18:03:43.038Z,4.46
2022-12-26T18:06:14.432Z,4.39
2022-12-26T18:08:41.463Z,4.37
2022-12-26T18:11:10.406Z,4.40
2022-12-26T18:13:36.868Z,4.33
2022-12-26T18:16:04.909Z,4.28
2022-12-26T18:18:42.985Z,4.19
2022-12-26T18:21:11.804Z,4.18
2022-12-26T18:23:38.911Z,4.14
2022-12-26T18:26:29.165Z,4.11
2022-12-26T18:28:55.641Z,4.14
2022-12-26T18:31:22.088Z,4.15
2022-12-26T18:33:48.759Z,4.13
2022-12-26T18:36:17.115Z,4.07
2022-12-26T18:38:44.130Z,4.01
2022-12-26T18:41:14.600Z,3.97
2022-12-26T18:43:41.014Z,3.99
2022-12-26T18:46:17.075Z,3.93
2022-12-26T18:48:43.809Z,3.95
2022-12-26T18:51:11.077Z,3.87
2022-12-26T18:53:37.472Z,3.80
2022-12-26T18:56:05.500Z,3.78
2022-12-26T18:58:31.919Z,3.76
2022-12-26T19:01:01.902Z,3.75
2022-12-26T19:03:28.323Z,3.77
2022-12-26T19:05:54.780Z,3.77
2022-12-26T19:08:21.289Z,3.74
2022-12-26T19:10:47.660Z,3.69
2022-12-26T19:13:14.320Z,3.64
2022-12-26T19:15:46.578Z,3.70
2022-12-26T19:18:13.157Z,3.74
2022-12-26T19:20:44.142Z,3.78
2022-12-26T19:23:11.286Z,3.78
2022-12-26T19:25:37.697Z,3.72
2022-12-26T19:28:04.055Z,3.69
2022-12-26T19:30:36.720Z,3.72
2022-12-26T19:33:05.007Z,3.71
2022-12-26T19:35:31.386Z,3.73
2022-12-26T19:37:58.412Z,3.70
2022-12-26T19:40:25.424Z,3.66
2022-12-26T19:42:52.316Z,3.60
2022-12-26T19:45:18.788Z,3.61
2022-12-26T19:47:45.157Z,3.65
2022-12-26T19:50:11.949Z,3.63
2022-12-26T19:52:39.403Z,3.58
2022-12-26T19:55:08.470Z,3.62
2022-12-26T19:57:35.217Z,3.62
2022-12-26T20:00:01.761Z,3.61
2022-12-26T20:02:38.756Z,3.62
2022-12-26T20:05:06.715Z,3.56
2022-12-26T20:07:33.327Z,3.57
2022-12-26T20:09:59.710Z,3.65
2022-12-26T20:12:26.071Z,3.63
2022-12-26T20:14:52.526Z,3.60
2022-12-26T20:17:18.919Z,3.61
2022-12-26T20:19:47.337Z,3.59
2022-12-26T20:22:13.700Z,3.63
2022-12-26T20:24:40.097Z,3.57
2022-12-26T20:27:06.460Z,3.53
2022-12-26T20:29:32.905Z,3.48
2022-12-26T20:31:59.379Z,3.48
2022-12-26T20:34:26.231Z,3.44
2022-12-26T20:36:52.680Z,3.43
2022-12-26T20:39:19.843Z,3.45
2022-12-26T20:41:46.296Z,3.48
2022-12-26T20:44:13.864Z,3.45
2022-12-26T20:46:41.173Z,3.47
2022-12-26T20:49:09.702Z,3.42
2022-12-26T20:51:38.443Z,3.45
2022-12-26T20:54:09.415Z,3.39
2022-12-26T20:56:37.186Z,3.41
2022-12-26T20:59:05.535Z,3.47
2022-12-26T21:01:32.214Z,3.36
2022-12-26T21:03:58.787Z,3.40
2022-12-26T21:06:29.602Z,3.49
2022-12-26T21:08:57.544Z,3.44
2022-12-26T21:11:29.892Z,3.45
2022-12-26T21:13:59.189Z,3.56
2022-12-26T21:16:33.009Z,3.59
2022-12-26T21:18:59.845Z,3.55
2022-12-26T21:21:32.565Z,3.57
2022-12-26T21:24:02.255Z,3.55
2022-12-26T21:26:29.431Z,3.59
2022-12-26T21:29:02.312Z,3.62
2022-12-26T21:31:31.469Z,3.71
2022-12-26T21:33:59.763Z,3.69
2022-12-26T21:36:27.317Z,3.68
2022-12-26T21:38:54.673Z,3.72
2022-12-26T21:41:21.718Z,3.71
2022-12-26T21:43:49.036Z,3.70
2022-12-26T21:46:17.946Z,3.72
2022-12-26T21:48:47.291Z,3.77
2022-12-26T21:51:18.996Z,3.80
2022-12-26T21:53:46.647Z,3.82
2022-12-26T21:56:15.386Z,3.79
2022-12-26T21:59:01.760Z,3.81
2022-12-26T22:01:29.967Z,3.85
2022-12-26T22:04:15.635Z,3.82
2022-12-26T22:06:42.863Z,3.86
2022-12-26T22:09:10.374Z,3.82
2022-12-26T22:11:55.813Z,3.89
2022-12-26T22:14:22.646Z,3.90
2022-12-26T22:16:53.124Z,3.82
2022-12-26T22:19:19.581Z,3.87
2022-12-26T22:21:46.142Z,3.86
2022-12-26T22:24:12.604Z,3.88
2022-12-26T22:26:38.942Z,3.83
2022-12-26T22:29:05.280Z,3.82
2022-12-26T22:31:35.108Z,3.91
2022-12-26T22:34:04.499Z,3.87
2022-12-26T22:36:31.771Z,3.89
2022-12-26T22:38:59.347Z,3.77
2022-12-26T22:41:26.564Z,3.78
2022-12-26T22:43:55.000Z,3.83
2022-12-26T22:46:21.541Z,3.84
2022-12-26T22:48:47.979Z,3.77
2022-12-26T22:51:19.433Z,3.75
2022-12-26T22:53:47.066Z,3.78
2022-12-26T22:56:13.807Z,3.77
2022-12-26T22:58:41.092Z,3.73
2022-12-26T23:01:18.866Z,3.76
2022-12-26T23:03:46.315Z,3.77
2022-12-26T23:06:31.281Z,3.73
2022-12-26T23:09:00.008Z,3.70
2022-12-26T23:11:34.288Z,3.78
2022-12-26T23:14:02.100Z,3.81
2022-12-26T23:16:38.620Z,3.85
2022-12-26T23:19:44.552Z,3.76
2022-12-26T23:22:11.151Z,3.72
2022-12-26T23:24:37.482Z,3.60
2022-12-26T23:27:25.218Z,3.56
2022-12-26T23:30:11.636Z,3.53
2022-12-26T23:32:39.821Z,3.40
2022-12-26T23:35:08.576Z,3.40
2022-12-26T23:37:35.725Z,3.43
2022-12-26T23:40:02.594Z,3.51
2022-12-26T23:42:28.986Z,3.45
2022-12-26T23:44:55.342Z,3.37
2022-12-26T23:47:21.731Z,3.36
2022-12-26T23:49:48.079Z,3.34
2022-12-26T23:52:14.455Z,3.35
2022-12-26T23:54:40.841Z,3.51
2022-12-26T23:57:07.203Z,3.51
2022-12-26T23:59:33.660Z,3.51
